Time;durP1;ratioP1;P1;durP2;ratioP2;P2;SDS_P1;SDS_P2;PMS_P1;PMS_P2;Temp;Humidity;BMP_temperature;BMP_pressure;BME280_temperature;BME280_humidity;BME280_pressure;Samples;Min_cycle;Max_cycle;Signal;HPM_P1;HPM_P2
2023/10/08 00:01:33;;;;;;;16.95;2.90;;;;;;;;;;5031961;28;20477;-75
2023/10/08 00:04:02;;;;;;;17.17;2.40;;;;;;;;;;5037599;28;20843;-74
2023/10/08 00:06:29;;;;;;;19.35;2.75;;;;;;;;;;5032146;28;20883;-74
2023/10/08 00:09:00;;;;;;;16.73;2.38;;;;;;;;;;5036897;28;20407;-74
2023/10/08 00:11:35;;;;;;;17.20;3.00;;;;;;;;;;4998369;28;20475;-73
2023/10/08 00:14:05;;;;;;;18.52;2.83;;;;;;;;;;5031194;28;20490;-74
2023/10/08 00:16:33;;;;;;;17.07;2.50;;;;;;;;;;5031297;28;20407;-74
2023/10/08 00:19:07;;;;;;;18.48;3.30;;;;;;;;;;5036453;28;20402;-73
2023/10/08 00:21:37;;;;;;;17.67;3.10;;;;;;;;;;5035544;28;21305;-74
2023/10/08 00:24:06;;;;;;;17.38;2.70;;;;;;;;;;5031524;28;20429;-73
2023/10/08 00:26:35;;;;;;;15.98;2.90;;;;;;;;;;5030160;28;20453;-73
2023/10/08 00:29:15;;;;;;;18.30;3.40;;;;;;;;;;5030796;28;20768;-74
2023/10/08 00:31:49;;;;;;;18.00;2.80;;;;;;;;;;5029846;28;20868;-73
2023/10/08 00:34:19;;;;;;;20.55;2.88;;;;;;;;;;5044513;28;20415;-74
2023/10/08 00:36:47;;;;;;;18.47;2.80;;;;;;;;;;5045135;28;20415;-75
2023/10/08 00:39:16;;;;;;;16.77;2.70;;;;;;;;;;5029378;28;20918;-74
2023/10/08 00:41:43;;;;;;;20.33;2.85;;;;;;;;;;5045928;28;20480;-75
2023/10/08 00:44:15;;;;;;;17.70;3.10;;;;;;;;;;5049915;28;20437;-73
2023/10/08 00:46:55;;;;;;;19.90;3.03;;;;;;;;;;5039313;28;21011;-75
2023/10/08 00:54:46;;;;;;;19.38;2.90;;;;;;;;;;5054374;28;20403;-72
2023/10/08 00:57:18;;;;;;;17.70;2.70;;;;;;;;;;5049710;28;20411;-75
2023/10/08 00:59:52;;;;;;;18.25;3.50;;;;;;;;;;5054262;28;20429;-76
2023/10/08 01:02:24;;;;;;;16.97;3.13;;;;;;;;;;5067761;28;20418;-75
2023/10/08 01:04:51;;;;;;;16.90;3.05;;;;;;;;;;5042546;28;20484;-76
2023/10/08 01:07:18;;;;;;;18.58;3.15;;;;;;;;;;5048297;28;20475;-75
2023/10/08 01:09:50;;;;;;;17.50;2.93;;;;;;;;;;5029780;28;20404;-75
2023/10/08 01:12:33;;;;;;;17.58;2.90;;;;;;;;;;5060812;28;20403;-75
2023/10/08 01:15:23;;;;;;;18.70;3.15;;;;;;;;;;5061861;28;20464;-75
2023/10/08 01:18:00;;;;;;;19.27;2.70;;;;;;;;;;5049312;28;20426;-75
2023/10/08 01:23:13;;;;;;;17.13;2.70;;;;;;;;;;5047089;28;20478;-74
2023/10/08 01:25:43;;;;;;;18.02;2.70;;;;;;;;;;5026888;28;20413;-75
2023/10/08 01:28:33;;;;;;;20.42;2.70;;;;;;;;;;5047754;28;20411;-74
2023/10/08 01:31:00;;;;;;;17.63;2.90;;;;;;;;;;5042365;28;20427;-74
2023/10/08 01:33:32;;;;;;;18.10;2.97;;;;;;;;;;5048002;28;20899;-75
2023/10/08 01:36:04;;;;;;;18.50;2.70;;;;;;;;;;5045958;28;20419;-73
2023/10/08 01:38:33;;;;;;;16.90;3.13;;;;;;;;;;5061621;28;20938;-75
2023/10/08 01:41:18;;;;;;;20.50;3.47;;;;;;;;;;5046579;28;20398;-75
2023/10/08 01:43:45;;;;;;;17.73;3.33;;;;;;;;;;5064794;28;20464;-75
2023/10/08 01:46:12;;;;;;;18.75;3.40;;;;;;;;;;5051979;28;20406;-76
2023/10/08 01:48:39;;;;;;;18.20;2.90;;;;;;;;;;5052894;28;20447;-76
2023/10/08 01:51:11;;;;;;;19.15;2.90;;;;;;;;;;5058762;28;20427;-76
2023/10/08 01:53:39;;;;;;;19.40;3.10;;;;;;;;;;5064701;28;20410;-76
2023/10/08 01:56:06;;;;;;;19.70;3.10;;;;;;;;;;5049078;28;20463;-76
2023/10/08 01:58:35;;;;;;;17.95;2.83;;;;;;;;;;5057019;28;20475;-75
2023/10/08 02:01:05;;;;;;;18.05;2.80;;;;;;;;;;5055494;28;20431;-76
2023/10/08 02:03:31;;;;;;;17.95;3.17;;;;;;;;;;5065131;28;20415;-75
2023/10/08 02:05:59;;;;;;;17.65;3.00;;;;;;;;;;5050643;28;20413;-76
2023/10/08 02:08:26;;;;;;;20.30;2.83;;;;;;;;;;4983553;28;1783661;-76
2023/10/08 02:10:54;;;;;;;18.40;3.40;;;;;;;;;;5031001;28;20440;-75
2023/10/08 02:13:21;;;;;;;17.90;3.10;;;;;;;;;;5052735;28;20411;-75
2023/10/08 02:15:51;;;;;;;17.02;3.20;;;;;;;;;;5049971;28;20407;-75
2023/10/08 02:18:18;;;;;;;16.77;2.80;;;;;;;;;;5049714;28;20459;-76
2023/10/08 02:20:44;;;;;;;22.00;3.08;;;;;;;;;;5054231;28;20407;-75
2023/10/08 02:23:12;;;;;;;23.42;3.10;;;;;;;;;;5046722;28;20419;-76
2023/10/08 02:25:39;;;;;;;17.33;2.90;;;;;;;;;;5028991;28;20413;-76
2023/10/08 02:28:15;;;;;;;19.52;2.85;;;;;;;;;;5047459;28;20526;-74
2023/10/08 02:30:42;;;;;;;19.60;3.25;;;;;;;;;;5048643;28;20438;-75
2023/10/08 02:33:15;;;;;;;17.02;3.10;;;;;;;;;;5038151;28;20431;-75
2023/10/08 02:35:43;;;;;;;17.92;3.58;;;;;;;;;;5050123;28;20437;-75
2023/10/08 02:38:16;;;;;;;19.93;3.23;;;;;;;;;;5034423;28;20407;-76
2023/10/08 02:40:47;;;;;;;17.00;2.65;;;;;;;;;;5050327;28;20407;-75
2023/10/08 02:43:17;;;;;;;17.38;3.30;;;;;;;;;;5047293;28;20449;-74
2023/10/08 02:45:49;;;;;;;17.98;2.90;;;;;;;;;;5058705;28;20411;-75
2023/10/08 02:48:17;;;;;;;17.35;2.95;;;;;;;;;;5046135;28;20487;-75
2023/10/08 02:50:45;;;;;;;17.73;3.00;;;;;;;;;;5044817;28;20956;-74
2023/10/08 02:53:13;;;;;;;18.23;3.03;;;;;;;;;;5045715;28;20407;-72
2023/10/08 02:55:47;;;;;;;17.20;3.13;;;;;;;;;;5047375;28;20489;-74
2023/10/08 02:58:15;;;;;;;19.83;3.40;;;;;;;;;;5040725;28;20413;-75
2023/10/08 03:00:42;;;;;;;17.92;2.75;;;;;;;;;;5064377;28;20495;-74
2023/10/08 03:03:15;;;;;;;17.83;3.00;;;;;;;;;;5051715;28;20644;-75
2023/10/08 03:05:46;;;;;;;19.05;3.03;;;;;;;;;;5065766;28;20396;-75
2023/10/08 03:08:13;;;;;;;17.52;2.90;;;;;;;;;;5050457;28;20411;-75
2023/10/08 03:10:41;;;;;;;18.77;3.05;;;;;;;;;;5053166;28;20406;-75
2023/10/08 03:13:09;;;;;;;22.55;4.10;;;;;;;;;;5055403;28;20475;-76
2023/10/08 03:15:46;;;;;;;17.95;3.15;;;;;;;;;;5049996;28;20418;-75
2023/10/08 03:18:14;;;;;;;18.87;3.17;;;;;;;;;;5023482;28;20508;-76
2023/10/08 03:20:42;;;;;;;17.35;3.40;;;;;;;;;;5068033;28;20414;-76
2023/10/08 03:23:23;;;;;;;16.83;2.70;;;;;;;;;;5041728;28;20753;-76
2023/10/08 03:26:00;;;;;;;16.95;2.70;;;;;;;;;;5052581;28;20407;-75
2023/10/08 03:28:27;;;;;;;18.77;3.08;;;;;;;;;;5052577;28;20410;-76
2023/10/08 03:31:03;;;;;;;17.48;3.03;;;;;;;;;;5051201;28;20446;-75
2023/10/08 03:33:34;;;;;;;19.20;3.03;;;;;;;;;;5049794;28;20985;-75
2023/10/08 03:36:14;;;;;;;18.13;3.50;;;;;;;;;;5058925;28;20410;-76
2023/10/08 03:38:52;;;;;;;18.40;2.87;;;;;;;;;;5050369;28;20414;-75
2023/10/08 03:41:24;;;;;;;22.65;3.45;;;;;;;;;;5052486;28;20430;-75
2023/10/08 03:44:01;;;;;;;16.80;2.70;;;;;;;;;;5050677;28;20448;-75
2023/10/08 03:46:30;;;;;;;17.48;2.70;;;;;;;;;;5051700;28;20411;-76
2023/10/08 03:48:57;;;;;;;18.40;3.03;;;;;;;;;;5064944;28;20829;-75
2023/10/08 03:51:27;;;;;;;18.30;3.42;;;;;;;;;;5051488;28;20430;-75
2023/10/08 03:56:41;;;;;;;17.83;2.90;;;;;;;;;;5048892;28;20395;-73
2023/10/08 03:59:12;;;;;;;18.30;3.25;;;;;;;;;;5043078;28;20506;-75
2023/10/08 04:01:42;;;;;;;18.90;3.60;;;;;;;;;;5050966;28;20423;-75
2023/10/08 04:04:15;;;;;;;19.08;2.60;;;;;;;;;;5042011;28;20432;-76
2023/10/08 04:06:54;;;;;;;20.40;4.00;;;;;;;;;;5055629;28;20415;-75
2023/10/08 04:14:16;;;;;;;18.38;2.80;;;;;;;;;;5042882;28;20745;-75
2023/10/08 04:16:44;;;;;;;20.80;3.63;;;;;;;;;;5045707;28;20502;-76
2023/10/08 04:19:11;;;;;;;17.75;2.90;;;;;;;;;;5048552;28;20411;-76
2023/10/08 04:21:39;;;;;;;17.85;3.42;;;;;;;;;;5055656;28;20873;-75
2023/10/08 04:24:08;;;;;;;19.50;3.30;;;;;;;;;;5049806;28;20511;-75
2023/10/08 04:26:35;;;;;;;18.10;3.70;;;;;;;;;;5043722;28;20502;-76
2023/10/08 04:29:06;;;;;;;19.63;3.50;;;;;;;;;;5043349;28;20403;-75
2023/10/08 04:31:43;;;;;;;18.95;3.30;;;;;;;;;;5050252;28;20391;-75
2023/10/08 04:34:17;;;;;;;18.60;2.90;;;;;;;;;;5044813;28;20851;-72
2023/10/08 04:36:46;;;;;;;18.30;3.10;;;;;;;;;;5045433;28;20832;-74
2023/10/08 04:39:14;;;;;;;18.65;3.50;;;;;;;;;;5048450;28;20462;-75
2023/10/08 04:41:43;;;;;;;18.67;3.30;;;;;;;;;;5032799;28;20456;-75
2023/10/08 04:44:16;;;;;;;20.05;3.53;;;;;;;;;;5050536;28;20495;-75
2023/10/08 04:49:27;;;;;;;18.25;3.47;;;;;;;;;;5045148;28;20426;-75
2023/10/08 04:51:56;;;;;;;21.42;2.83;;;;;;;;;;5046017;28;20445;-76
2023/10/08 04:54:24;;;;;;;17.90;3.10;;;;;;;;;;5047773;28;20419;-75
2023/10/08 04:56:52;;;;;;;17.60;2.83;;;;;;;;;;5052815;28;20417;-75
2023/10/08 04:59:21;;;;;;;18.65;3.30;;;;;;;;;;5061507;28;20500;-75
2023/10/08 05:01:48;;;;;;;18.15;2.63;;;;;;;;;;5045856;28;20418;-76
2023/10/08 05:04:32;;;;;;;21.00;3.43;;;;;;;;;;5055861;28;20433;-76
2023/10/08 05:07:17;;;;;;;17.85;3.20;;;;;;;;;;5063530;28;20406;-75
2023/10/08 05:09:52;;;;;;;19.13;3.67;;;;;;;;;;5061469;28;20438;-75
2023/10/08 05:18:12;;;;;;;18.90;3.63;;;;;;;;;;5064376;28;20441;-76
2023/10/08 05:28:35;;;;;;;21.23;3.40;;;;;;;;;;5048925;28;20411;-75
2023/10/08 05:39:30;;;;;;;21.40;3.53;;;;;;;;;;5051320;28;20407;-75
2023/10/08 05:42:13;;;;;;;20.52;3.97;;;;;;;;;;5049962;28;20403;-75
2023/10/08 05:44:43;;;;;;;22.60;3.50;;;;;;;;;;5052216;28;20438;-75
2023/10/08 05:47:28;;;;;;;17.45;3.25;;;;;;;;;;5063572;28;20424;-75
2023/10/08 05:55:27;;;;;;;20.10;3.20;;;;;;;;;;5036114;28;20899;-75
2023/10/08 06:01:01;;;;;;;18.20;3.28;;;;;;;;;;5049072;28;20784;-76
2023/10/08 06:03:39;;;;;;;18.23;3.47;;;;;;;;;;5052010;28;20415;-75
2023/10/08 06:08:51;;;;;;;19.30;3.70;;;;;;;;;;5049118;28;20430;-76
2023/10/08 06:11:36;;;;;;;20.17;3.80;;;;;;;;;;5040709;28;20422;-75
2023/10/08 06:14:12;;;;;;;18.95;3.75;;;;;;;;;;5047199;28;20393;-74
2023/10/08 06:16:44;;;;;;;21.60;3.40;;;;;;;;;;5041283;28;20873;-74
2023/10/08 06:19:11;;;;;;;21.38;4.50;;;;;;;;;;5042883;28;20436;-76
2023/10/08 06:21:39;;;;;;;18.95;3.50;;;;;;;;;;5031400;28;20389;-75
2023/10/08 06:24:11;;;;;;;21.15;3.60;;;;;;;;;;5051389;28;20423;-76
2023/10/08 06:26:48;;;;;;;17.60;3.80;;;;;;;;;;5053615;28;20433;-76
2023/10/08 06:29:18;;;;;;;22.52;4.30;;;;;;;;;;5043834;28;20483;-75
2023/10/08 06:31:51;;;;;;;18.70;3.80;;;;;;;;;;5045089;28;20438;-76
2023/10/08 06:34:27;;;;;;;18.92;3.60;;;;;;;;;;5047427;28;20399;-75
2023/10/08 06:36:55;;;;;;;19.13;3.60;;;;;;;;;;5033970;28;20428;-75
2023/10/08 06:39:47;;;;;;;20.35;3.25;;;;;;;;;;5046064;28;20407;-73
2023/10/08 06:42:15;;;;;;;18.17;3.30;;;;;;;;;;5043452;28;20437;-72
2023/10/08 06:44:46;;;;;;;18.45;3.63;;;;;;;;;;5051234;28;20428;-74
2023/10/08 06:47:15;;;;;;;17.20;3.90;;;;;;;;;;5050308;28;20415;-74
2023/10/08 06:49:43;;;;;;;19.48;3.15;;;;;;;;;;5051549;28;20438;-76
2023/10/08 06:52:13;;;;;;;20.98;3.80;;;;;;;;;;5060306;28;20461;-75
2023/10/08 06:54:41;;;;;;;20.75;4.03;;;;;;;;;;5052658;28;20446;-77
2023/10/08 06:57:13;;;;;;;17.60;3.60;;;;;;;;;;5054042;28;20449;-77
2023/10/08 06:59:42;;;;;;;23.43;3.43;;;;;;;;;;5052345;28;20404;-78
2023/10/08 07:02:10;;;;;;;19.23;3.40;;;;;;;;;;5068004;28;20413;-77
2023/10/08 07:04:37;;;;;;;20.73;4.00;;;;;;;;;;5052808;28;20415;-76
2023/10/08 07:07:09;;;;;;;19.02;3.60;;;;;;;;;;5053723;28;20449;-76
2023/10/08 07:09:36;;;;;;;18.50;3.00;;;;;;;;;;5051238;28;20405;-76
2023/10/08 07:12:13;;;;;;;21.10;3.42;;;;;;;;;;5053081;28;20426;-77
2023/10/08 07:14:41;;;;;;;16.98;3.20;;;;;;;;;;5052276;28;20414;-76
2023/10/08 07:17:08;;;;;;;18.40;3.40;;;;;;;;;;5052058;28;20415;-76
2023/10/08 07:19:38;;;;;;;19.08;3.42;;;;;;;;;;5053392;28;20752;-76
2023/10/08 07:22:17;;;;;;;18.65;3.90;;;;;;;;;;5054444;28;20407;-78
2023/10/08 07:24:51;;;;;;;18.70;3.50;;;;;;;;;;5053759;28;20427;-76
2023/10/08 07:27:31;;;;;;;18.40;3.25;;;;;;;;;;5054328;28;20415;-75
2023/10/08 07:30:01;;;;;;;19.42;3.20;;;;;;;;;;5051810;28;20403;-76
2023/10/08 07:32:30;;;;;;;22.13;3.22;;;;;;;;;;5054613;28;20415;-76
2023/10/08 07:35:14;;;;;;;18.02;3.30;;;;;;;;;;5054850;28;20431;-77
2023/10/08 07:37:41;;;;;;;17.93;2.90;;;;;;;;;;5069750;28;20422;-76
2023/10/08 07:40:11;;;;;;;20.50;4.00;;;;;;;;;;5057414;28;20526;-77
2023/10/08 07:42:39;;;;;;;20.17;3.75;;;;;;;;;;5051901;28;20506;-74
2023/10/08 07:45:06;;;;;;;21.80;4.32;;;;;;;;;;5050093;28;20423;-77
2023/10/08 07:47:33;;;;;;;20.05;3.38;;;;;;;;;;5052877;28;20415;-77
2023/10/08 07:50:00;;;;;;;19.95;3.67;;;;;;;;;;5053904;28;20395;-77
2023/10/08 07:52:26;;;;;;;18.93;3.80;;;;;;;;;;5048671;28;20487;-76
2023/10/08 07:54:53;;;;;;;18.13;3.20;;;;;;;;;;5051037;28;20415;-77
2023/10/08 07:57:25;;;;;;;16.52;3.20;;;;;;;;;;5058085;28;20407;-76
2023/10/08 08:00:17;;;;;;;19.17;3.45;;;;;;;;;;5050707;28;20418;-78
2023/10/08 08:02:43;;;;;;;19.00;3.43;;;;;;;;;;5050291;28;20935;-76
2023/10/08 08:05:10;;;;;;;17.75;3.47;;;;;;;;;;5049342;28;20473;-76
2023/10/08 08:07:38;;;;;;;17.38;3.38;;;;;;;;;;5047093;28;20422;-76
2023/10/08 08:10:10;;;;;;;17.55;3.30;;;;;;;;;;5046572;28;20460;-73
2023/10/08 08:12:37;;;;;;;23.27;4.75;;;;;;;;;;5050126;28;20423;-76
2023/10/08 08:15:14;;;;;;;20.83;3.65;;;;;;;;;;5060209;28;20415;-76
2023/10/08 08:17:41;;;;;;;19.83;3.58;;;;;;;;;;5051930;28;20456;-73
2023/10/08 08:20:18;;;;;;;19.30;3.20;;;;;;;;;;5048123;28;20447;-76
2023/10/08 08:22:54;;;;;;;23.13;4.55;;;;;;;;;;5063648;28;20391;-74
2023/10/08 08:25:34;;;;;;;21.60;4.05;;;;;;;;;;5065352;28;20431;-72
2023/10/08 08:28:01;;;;;;;19.23;3.25;;;;;;;;;;5051086;28;20957;-76
2023/10/08 08:30:29;;;;;;;19.33;3.40;;;;;;;;;;5050569;28;20443;-74
2023/10/08 08:32:56;;;;;;;17.90;3.00;;;;;;;;;;5051938;28;20403;-76
2023/10/08 08:35:23;;;;;;;18.45;3.40;;;;;;;;;;5053597;28;20417;-74
2023/10/08 08:37:50;;;;;;;22.13;3.50;;;;;;;;;;5055280;28;20407;-73
2023/10/08 08:40:18;;;;;;;20.45;3.85;;;;;;;;;;5046621;28;20484;-76
2023/10/08 08:42:46;;;;;;;19.50;3.67;;;;;;;;;;5053422;28;20411;-72
2023/10/08 08:45:16;;;;;;;19.25;3.13;;;;;;;;;;5058840;28;20430;-75
2023/10/08 08:47:45;;;;;;;21.70;3.67;;;;;;;;;;5052349;28;20438;-76
2023/10/08 08:50:12;;;;;;;18.27;3.22;;;;;;;;;;5058145;28;20403;-76
2023/10/08 08:52:39;;;;;;;20.60;4.00;;;;;;;;;;5050747;28;20423;-76
2023/10/08 08:55:13;;;;;;;19.17;4.03;;;;;;;;;;5054061;28;20379;-75
2023/10/08 08:57:41;;;;;;;20.20;3.70;;;;;;;;;;5051441;28;20391;-75
2023/10/08 09:00:11;;;;;;;23.27;4.32;;;;;;;;;;5051139;28;20418;-77
2023/10/08 09:02:38;;;;;;;20.08;3.38;;;;;;;;;;5068703;28;20415;-76
2023/10/08 09:05:25;;;;;;;18.67;3.50;;;;;;;;;;5054121;28;20426;-76
2023/10/08 09:07:57;;;;;;;18.50;3.20;;;;;;;;;;5052603;28;20417;-76
2023/10/08 09:10:27;;;;;;;20.27;5.10;;;;;;;;;;5053622;28;20417;-76
2023/10/08 09:12:58;;;;;;;19.07;3.70;;;;;;;;;;5054877;28;20418;-75
2023/10/08 09:15:25;;;;;;;24.38;3.92;;;;;;;;;;5054047;28;20437;-76
2023/10/08 09:17:53;;;;;;;21.63;3.95;;;;;;;;;;5051938;28;20488;-74
2023/10/08 09:20:21;;;;;;;20.23;4.70;;;;;;;;;;5035689;28;20449;-73
2023/10/08 09:23:07;;;;;;;21.17;4.72;;;;;;;;;;5054799;28;20418;-73
2023/10/08 09:25:34;;;;;;;20.33;4.40;;;;;;;;;;5067378;28;20399;-73
2023/10/08 09:28:00;;;;;;;20.00;3.80;;;;;;;;;;5057029;28;20493;-73
2023/10/08 09:30:29;;;;;;;19.20;4.13;;;;;;;;;;5061594;28;20414;-76
2023/10/08 09:32:56;;;;;;;20.83;4.35;;;;;;;;;;5054600;28;20497;-77
2023/10/08 09:35:26;;;;;;;21.65;4.43;;;;;;;;;;5055471;28;20894;-76
2023/10/08 09:37:53;;;;;;;22.00;3.92;;;;;;;;;;5047806;28;20391;-75
2023/10/08 09:40:21;;;;;;;21.08;5.10;;;;;;;;;;5053320;28;20425;-73
2023/10/08 09:42:47;;;;;;;23.77;5.07;;;;;;;;;;5046981;28;21032;-76
2023/10/08 09:45:14;;;;;;;21.23;4.40;;;;;;;;;;5066594;28;20453;-75
2023/10/08 09:47:44;;;;;;;23.27;5.20;;;;;;;;;;5057273;28;20426;-74
2023/10/08 09:50:12;;;;;;;24.90;4.32;;;;;;;;;;5051936;28;20974;-75
2023/10/08 09:52:44;;;;;;;22.60;5.65;;;;;;;;;;5053891;28;20407;-78
2023/10/08 09:55:11;;;;;;;22.37;4.10;;;;;;;;;;5054126;28;20419;-76
2023/10/08 09:57:38;;;;;;;19.88;4.80;;;;;;;;;;5051028;28;20426;-76
2023/10/08 10:00:07;;;;;;;26.10;5.05;;;;;;;;;;5042180;28;20529;-72
2023/10/08 10:02:34;;;;;;;24.90;5.60;;;;;;;;;;5049568;28;20495;-75
2023/10/08 10:05:06;;;;;;;24.85;5.15;;;;;;;;;;5054519;28;20853;-76
2023/10/08 10:07:32;;;;;;;24.17;4.68;;;;;;;;;;5056398;28;20450;-76
2023/10/08 10:10:00;;;;;;;21.75;5.05;;;;;;;;;;5049703;28;20383;-76
2023/10/08 10:12:27;;;;;;;23.60;5.00;;;;;;;;;;5050420;28;20414;-74
2023/10/08 10:14:55;;;;;;;24.40;5.20;;;;;;;;;;5052602;28;20494;-74
2023/10/08 10:17:23;;;;;;;26.45;5.78;;;;;;;;;;5048846;28;20453;-75
2023/10/08 10:20:13;;;;;;;25.33;5.47;;;;;;;;;;5051483;28;20390;-74
2023/10/08 10:22:43;;;;;;;23.73;4.80;;;;;;;;;;5048269;28;20486;-74
2023/10/08 10:25:16;;;;;;;21.70;4.85;;;;;;;;;;5049020;28;20407;-74
2023/10/08 10:28:03;;;;;;;22.23;4.90;;;;;;;;;;5043634;28;20425;-75
2023/10/08 10:30:30;;;;;;;22.08;4.85;;;;;;;;;;5053002;28;20435;-75
2023/10/08 10:33:00;;;;;;;25.10;6.72;;;;;;;;;;5052483;28;20411;-73
2023/10/08 10:35:27;;;;;;;19.63;4.22;;;;;;;;;;5054782;28;20407;-76
2023/10/08 10:38:03;;;;;;;22.80;5.22;;;;;;;;;;5053192;28;20399;-72
2023/10/08 10:40:41;;;;;;;24.75;4.70;;;;;;;;;;5066136;28;20432;-75
2023/10/08 10:43:09;;;;;;;23.40;4.82;;;;;;;;;;5063346;28;20432;-75
2023/10/08 10:45:36;;;;;;;22.05;5.20;;;;;;;;;;5030248;28;20507;-75
2023/10/08 10:48:14;;;;;;;19.88;4.07;;;;;;;;;;5050103;28;20780;-75
2023/10/08 10:53:44;;;;;;;20.58;4.93;;;;;;;;;;5022943;28;20423;-73
2023/10/08 10:56:18;;;;;;;24.58;5.15;;;;;;;;;;5031191;28;20896;-75
2023/10/08 10:58:46;;;;;;;22.77;4.90;;;;;;;;;;5027642;28;20409;-74
2023/10/08 11:01:25;;;;;;;23.95;5.50;;;;;;;;;;5021735;28;20432;-74
2023/10/08 11:03:52;;;;;;;22.63;5.05;;;;;;;;;;5038316;28;20413;-74
2023/10/08 11:06:23;;;;;;;25.93;5.70;;;;;;;;;;5039200;28;20517;-74
2023/10/08 11:08:50;;;;;;;24.33;6.00;;;;;;;;;;5042140;28;20514;-73
2023/10/08 11:11:18;;;;;;;25.05;5.20;;;;;;;;;;5039302;28;20409;-74
2023/10/08 11:13:54;;;;;;;24.27;5.43;;;;;;;;;;5030426;28;20412;-74
2023/10/08 11:16:22;;;;;;;19.40;4.50;;;;;;;;;;5049208;28;20756;-75
2023/10/08 11:18:50;;;;;;;25.70;5.10;;;;;;;;;;5033283;28;20486;-75
2023/10/08 11:21:23;;;;;;;24.33;5.95;;;;;;;;;;5039029;28;20419;-73
2023/10/08 11:23:58;;;;;;;22.67;4.93;;;;;;;;;;5031792;28;20407;-74
2023/10/08 11:26:38;;;;;;;21.88;4.80;;;;;;;;;;5045366;28;20430;-74
2023/10/08 11:29:05;;;;;;;25.48;6.20;;;;;;;;;;5030615;28;20399;-76
2023/10/08 11:31:35;;;;;;;23.38;5.10;;;;;;;;;;5032566;28;20418;-75
2023/10/08 11:34:08;;;;;;;25.92;5.43;;;;;;;;;;5037811;28;20485;-75
2023/10/08 11:36:42;;;;;;;23.95;5.70;;;;;;;;;;5031141;28;20417;-74
2023/10/08 11:39:11;;;;;;;23.75;5.88;;;;;;;;;;5042122;28;20414;-76
2023/10/08 11:41:50;;;;;;;25.17;6.70;;;;;;;;;;5035172;28;20418;-74
2023/10/08 11:44:22;;;;;;;23.17;6.13;;;;;;;;;;5044595;28;20411;-75
2023/10/08 11:46:51;;;;;;;23.45;6.18;;;;;;;;;;5032067;28;20449;-75
2023/10/08 11:49:18;;;;;;;24.37;5.53;;;;;;;;;;5035647;28;20450;-73
2023/10/08 11:51:48;;;;;;;24.52;5.97;;;;;;;;;;5043676;28;20407;-74
2023/10/08 11:54:15;;;;;;;23.73;5.90;;;;;;;;;;5042878;28;20585;-74
2023/10/08 11:56:44;;;;;;;24.55;6.05;;;;;;;;;;5041312;28;20403;-76
2023/10/08 11:59:12;;;;;;;23.73;5.95;;;;;;;;;;5039692;28;20439;-74
2023/10/08 12:01:42;;;;;;;26.17;7.07;;;;;;;;;;5034079;28;20403;-75
2023/10/08 12:04:18;;;;;;;24.52;6.50;;;;;;;;;;5050400;28;20401;-75
2023/10/08 12:06:48;;;;;;;25.33;6.40;;;;;;;;;;5036835;28;20526;-76
2023/10/08 12:09:14;;;;;;;23.23;6.78;;;;;;;;;;5040247;28;20494;-75
2023/10/08 12:11:42;;;;;;;21.98;6.28;;;;;;;;;;5035846;28;20775;-73
2023/10/08 12:14:10;;;;;;;28.73;6.65;;;;;;;;;;5048886;28;20465;-73
2023/10/08 12:16:39;;;;;;;27.65;5.85;;;;;;;;;;5033727;28;20446;-75
2023/10/08 12:19:15;;;;;;;28.48;6.90;;;;;;;;;;5030434;28;20445;-75
2023/10/08 12:21:42;;;;;;;21.58;5.90;;;;;;;;;;5030991;28;20476;-73
2023/10/08 12:24:12;;;;;;;26.05;7.47;;;;;;;;;;5032397;28;20417;-74
2023/10/08 12:26:45;;;;;;;24.90;6.83;;;;;;;;;;5030920;28;20426;-75
2023/10/08 12:29:19;;;;;;;29.17;7.00;;;;;;;;;;5030332;28;20406;-75
2023/10/08 12:31:48;;;;;;;27.15;6.35;;;;;;;;;;5031751;28;20460;-75
2023/10/08 12:34:16;;;;;;;23.70;6.57;;;;;;;;;;5029822;28;20442;-74
2023/10/08 12:36:43;;;;;;;26.67;7.63;;;;;;;;;;5020563;28;20410;-75
2023/10/08 12:39:14;;;;;;;24.63;6.50;;;;;;;;;;5032377;28;20469;-75
2023/10/08 12:41:43;;;;;;;27.35;6.90;;;;;;;;;;5032666;28;20445;-73
2023/10/08 12:44:10;;;;;;;28.65;7.78;;;;;;;;;;5034062;28;20741;-74
2023/10/08 12:46:39;;;;;;;23.35;6.90;;;;;;;;;;5041606;28;20931;-75
2023/10/08 12:49:06;;;;;;;26.77;6.93;;;;;;;;;;5036228;28;20818;-74
2023/10/08 12:51:33;;;;;;;23.98;6.32;;;;;;;;;;5040675;28;20410;-75
2023/10/08 12:54:03;;;;;;;28.35;7.00;;;;;;;;;;5034487;28;20870;-75
2023/10/08 12:56:44;;;;;;;25.30;6.22;;;;;;;;;;5037160;28;20406;-74
2023/10/08 12:59:20;;;;;;;25.42;7.25;;;;;;;;;;5010926;28;20418;-75
2023/10/08 13:01:51;;;;;;;29.50;7.03;;;;;;;;;;5032506;28;20874;-74
2023/10/08 13:04:25;;;;;;;26.67;6.40;;;;;;;;;;5036033;28;20418;-74
2023/10/08 13:06:56;;;;;;;25.67;7.38;;;;;;;;;;5034833;28;20460;-75
2023/10/08 13:09:23;;;;;;;25.30;7.32;;;;;;;;;;5039792;28;20449;-75
2023/10/08 13:11:50;;;;;;;25.40;7.20;;;;;;;;;;5047010;28;20417;-74
2023/10/08 13:14:16;;;;;;;25.65;7.22;;;;;;;;;;5039040;28;20407;-76
2023/10/08 13:16:45;;;;;;;26.75;8.10;;;;;;;;;;5032531;28;20461;-75
2023/10/08 13:19:14;;;;;;;26.67;7.47;;;;;;;;;;5034508;28;20915;-75
2023/10/08 13:21:40;;;;;;;24.63;6.60;;;;;;;;;;5035065;28;20410;-75
2023/10/08 13:24:08;;;;;;;24.98;7.40;;;;;;;;;;5036746;28;20443;-76
2023/10/08 13:26:37;;;;;;;28.23;7.55;;;;;;;;;;5035354;28;20985;-73
2023/10/08 13:29:05;;;;;;;25.55;7.15;;;;;;;;;;5038245;28;20823;-73
2023/10/08 13:31:36;;;;;;;28.77;7.38;;;;;;;;;;5043903;28;20439;-73
2023/10/08 13:34:08;;;;;;;22.88;6.20;;;;;;;;;;5026791;28;20501;-76
2023/10/08 13:36:39;;;;;;;26.33;7.27;;;;;;;;;;5031078;28;20417;-74
2023/10/08 13:39:09;;;;;;;23.27;6.78;;;;;;;;;;5033256;28;20422;-74
2023/10/08 13:41:38;;;;;;;26.67;7.13;;;;;;;;;;5033613;28;20457;-75
2023/10/08 13:44:05;;;;;;;28.37;7.73;;;;;;;;;;5032822;28;20441;-75
2023/10/08 13:46:36;;;;;;;27.30;8.02;;;;;;;;;;5033338;28;20418;-75
2023/10/08 13:49:02;;;;;;;30.97;7.20;;;;;;;;;;5034385;28;20403;-74
2023/10/08 13:51:29;;;;;;;25.80;7.15;;;;;;;;;;5033797;28;20410;-75
2023/10/08 13:54:00;;;;;;;24.85;6.88;;;;;;;;;;5034212;28;20407;-74
2023/10/08 13:56:30;;;;;;;23.48;6.68;;;;;;;;;;5036511;28;20409;-75
2023/10/08 13:59:03;;;;;;;24.95;6.07;;;;;;;;;;5049749;28;20422;-75
2023/10/08 14:01:33;;;;;;;25.67;6.93;;;;;;;;;;5036410;28;20454;-75
2023/10/08 14:04:07;;;;;;;26.00;7.80;;;;;;;;;;5030924;28;20917;-73
2023/10/08 14:06:34;;;;;;;27.20;7.13;;;;;;;;;;5034117;28;20419;-75
2023/10/08 14:09:07;;;;;;;24.77;6.70;;;;;;;;;;5038695;28;20411;-74
2023/10/08 14:11:34;;;;;;;21.95;6.28;;;;;;;;;;5034974;28;20492;-72
2023/10/08 14:14:07;;;;;;;23.50;6.20;;;;;;;;;;5040442;28;20415;-75
2023/10/08 14:16:34;;;;;;;24.97;7.97;;;;;;;;;;5033511;28;20928;-74
2023/10/08 14:19:04;;;;;;;24.33;6.47;;;;;;;;;;5033366;28;20417;-75
2023/10/08 14:21:36;;;;;;;23.95;6.78;;;;;;;;;;5032510;28;20987;-74
2023/10/08 14:24:05;;;;;;;24.63;7.20;;;;;;;;;;5031735;28;20502;-75
2023/10/08 14:26:36;;;;;;;29.15;7.28;;;;;;;;;;5034748;28;20439;-75
2023/10/08 14:29:14;;;;;;;25.38;6.68;;;;;;;;;;5032303;28;20875;-75
2023/10/08 14:31:44;;;;;;;28.55;7.10;;;;;;;;;;5036317;28;20534;-72
2023/10/08 14:45:00;;;;;;;23.25;7.68;;;;;;;;;;5032397;28;20415;-75
2023/10/08 14:47:28;;;;;;;24.15;6.70;;;;;;;;;;5032358;28;20439;-75
2023/10/08 14:49:56;;;;;;;29.17;7.10;;;;;;;;;;5032334;28;20443;-75
2023/10/08 14:52:23;;;;;;;24.65;7.57;;;;;;;;;;5032335;28;20837;-73
2023/10/08 14:54:53;;;;;;;29.45;8.30;;;;;;;;;;5033215;28;20484;-76
2023/10/08 14:57:20;;;;;;;25.55;8.30;;;;;;;;;;5044068;28;20414;-76
2023/10/08 14:59:48;;;;;;;28.48;7.43;;;;;;;;;;5050515;28;20413;-74
2023/10/08 15:02:15;;;;;;;28.70;8.18;;;;;;;;;;5060843;28;20415;-76
2023/10/08 15:04:41;;;;;;;26.38;6.90;;;;;;;;;;5053285;28;20411;-76
2023/10/08 15:07:10;;;;;;;36.83;16.13;;;;;;;;;;5050406;28;20419;-76
2023/10/08 15:09:38;;;;;;;33.45;11.75;;;;;;;;;;5055211;28;20400;-76
2023/10/08 15:12:08;;;;;;;39.22;16.92;;;;;;;;;;5044646;28;20447;-74
2023/10/08 15:14:35;;;;;;;31.23;12.52;;;;;;;;;;5038456;28;20926;-73
2023/10/08 15:17:02;;;;;;;28.23;9.97;;;;;;;;;;5028522;28;20411;-75
2023/10/08 15:19:29;;;;;;;26.95;8.55;;;;;;;;;;5032977;28;20402;-74
2023/10/08 15:21:58;;;;;;;29.33;10.00;;;;;;;;;;5032759;28;20773;-74
2023/10/08 15:24:24;;;;;;;26.60;8.00;;;;;;;;;;5032772;28;20426;-74
2023/10/08 15:26:52;;;;;;;25.30;7.40;;;;;;;;;;5032531;28;20419;-75
2023/10/08 15:29:20;;;;;;;28.60;6.82;;;;;;;;;;5031851;28;20434;-74
2023/10/08 15:31:47;;;;;;;30.42;7.95;;;;;;;;;;5031843;28;20413;-75
2023/10/08 15:34:14;;;;;;;30.55;7.85;;;;;;;;;;5033506;28;20401;-75
2023/10/08 15:36:58;;;;;;;26.52;6.38;;;;;;;;;;5038356;28;20818;-75
2023/10/08 15:39:26;;;;;;;24.70;7.05;;;;;;;;;;5031274;28;20779;-75
2023/10/08 15:41:53;;;;;;;25.90;6.73;;;;;;;;;;5030798;28;20442;-75
2023/10/08 15:44:21;;;;;;;27.80;7.47;;;;;;;;;;5032168;28;20413;-77
2023/10/08 15:46:47;;;;;;;28.83;8.70;;;;;;;;;;5031638;28;20419;-76
2023/10/08 15:49:14;;;;;;;27.67;7.30;;;;;;;;;;5030406;28;20443;-74
2023/10/08 15:51:41;;;;;;;25.30;7.35;;;;;;;;;;5031523;28;20417;-75
2023/10/08 15:54:07;;;;;;;25.90;6.43;;;;;;;;;;5031019;28;20461;-74